createdAt,value
2022-08-17T00:00:43.901Z,28.72
2022-08-17T00:03:13.552Z,28.72
2022-08-17T00:05:44.776Z,28.66
2022-08-17T00:08:14.406Z,28.64
2022-08-17T00:10:43.086Z,28.62
2022-08-17T00:13:16.175Z,28.62
2022-08-17T00:15:47.088Z,28.58
2022-08-17T00:19:01.196Z,28.60
2022-08-17T00:21:10.533Z,28.62
2022-08-17T00:23:47.788Z,28.68
2022-08-17T00:26:43.123Z,28.65
2022-08-17T00:29:07.609Z,28.62
2022-08-17T00:31:37.791Z,28.62
2022-08-17T00:34:08.891Z,28.58
2022-08-17T00:36:38.021Z,28.56
2022-08-17T00:39:06.130Z,28.54
2022-08-17T00:41:35.910Z,28.52
2022-08-17T00:44:06.569Z,28.56
2022-08-17T00:46:39.358Z,28.56
2022-08-17T00:49:08.917Z,28.58
2022-08-17T00:51:41.543Z,28.57
2022-08-17T00:54:21.742Z,28.56
2022-08-17T00:56:55.143Z,28.56
2022-08-17T00:59:27.204Z,28.55
2022-08-17T01:01:56.935Z,28.53
2022-08-17T01:04:26.900Z,28.51
2022-08-17T01:06:57.930Z,28.55
2022-08-17T01:09:27.006Z,28.56
2022-08-17T01:11:55.052Z,28.52
2022-08-17T01:14:25.493Z,28.49
2022-08-17T01:16:57.371Z,28.51
2022-08-17T01:19:28.920Z,28.54
2022-08-17T01:22:04.600Z,28.49
2022-08-17T01:24:35.279Z,28.48
2022-08-17T01:27:10.272Z,28.48
2022-08-17T01:29:42.608Z,28.46
2022-08-17T01:32:11.429Z,28.45
2022-08-17T01:34:43.621Z,28.45
2022-08-17T01:37:19.906Z,28.45
2022-08-17T01:39:53.877Z,28.45
2022-08-17T01:42:27.837Z,28.45
2022-08-17T01:45:00.128Z,28.43
2022-08-17T01:47:28.722Z,28.41
2022-08-17T01:49:59.465Z,28.42
2022-08-17T01:52:27.694Z,28.42
2022-08-17T01:54:58.087Z,28.39
2022-08-17T01:57:26.425Z,28.40
2022-08-17T01:59:55.184Z,28.35
2022-08-17T02:02:30.301Z,28.37
2022-08-17T02:04:59.965Z,28.43
2022-08-17T02:07:28.333Z,28.42
2022-08-17T02:09:58.184Z,28.43
2022-08-17T02:12:37.820Z,28.41
2022-08-17T02:15:09.638Z,28.43
2022-08-17T02:17:38.457Z,28.39
2022-08-17T02:20:08.369Z,28.38
2022-08-17T02:22:37.622Z,28.40
2022-08-17T02:25:11.077Z,28.39
2022-08-17T02:27:40.627Z,28.41
2022-08-17T02:30:59.195Z,28.42
2022-08-17T02:33:00.580Z,28.40
2022-08-17T02:35:32.760Z,28.35
2022-08-17T02:38:01.507Z,28.34
2022-08-17T02:40:36.618Z,28.33
2022-08-17T02:43:05.968Z,28.34
2022-08-17T02:45:34.683Z,28.27
2022-08-17T02:48:03.097Z,28.25
2022-08-17T02:50:31.512Z,28.24
2022-08-17T02:53:02.356Z,28.28
2022-08-17T02:55:35.917Z,28.29
2022-08-17T02:58:04.802Z,28.28
2022-08-17T03:00:36.419Z,28.34
2022-08-17T03:03:06.930Z,28.33
2022-08-17T03:05:37.265Z,28.31
2022-08-17T03:08:06.792Z,28.28
2022-08-17T03:10:41.710Z,28.27
2022-08-17T03:13:10.139Z,28.27
2022-08-17T03:15:40.768Z,28.25
2022-08-17T03:18:19.204Z,28.28
2022-08-17T03:20:55.373Z,28.25
2022-08-17T03:23:25.264Z,28.24
2022-08-17T03:25:55.905Z,28.26
2022-08-17T03:28:25.886Z,28.27
2022-08-17T03:30:54.462Z,28.25
2022-08-17T03:33:23.251Z,28.26
2022-08-17T03:35:51.680Z,28.25
2022-08-17T03:38:20.317Z,28.27
2022-08-17T03:40:57.810Z,28.28
2022-08-17T03:43:32.277Z,28.26
2022-08-17T03:46:34.214Z,28.28
2022-08-17T03:49:37.659Z,28.32
2022-08-17T03:52:26.149Z,28.33
2022-08-17T03:55:11.900Z,28.40
2022-08-17T03:57:40.782Z,28.43
2022-08-17T04:00:11.888Z,28.47
2022-08-17T04:02:40.568Z,28.50
2022-08-17T04:05:09.612Z,28.52
2022-08-17T04:07:37.902Z,28.60
2022-08-17T04:10:07.017Z,28.64
2022-08-17T04:12:43.921Z,28.68
2022-08-17T04:15:14.313Z,28.72
2022-08-17T04:17:44.347Z,28.78
2022-08-17T04:20:13.537Z,28.82
2022-08-17T04:22:56.281Z,28.83
2022-08-17T04:25:25.782Z,28.87
2022-08-17T04:27:54.214Z,28.90
2022-08-17T04:30:24.311Z,28.91
2022-08-17T04:33:10.940Z,28.96
2022-08-17T04:35:42.268Z,29.03
2022-08-17T04:38:14.353Z,29.09
2022-08-17T04:41:00.197Z,29.12
2022-08-17T04:43:31.041Z,29.14
2022-08-17T04:46:02.026Z,29.16
2022-08-17T04:48:36.063Z,29.19
2022-08-17T04:51:10.128Z,29.23
2022-08-17T04:53:40.196Z,29.36
2022-08-17T04:56:11.823Z,29.35
2022-08-17T04:58:46.704Z,29.36
2022-08-17T05:01:19.052Z,29.36
2022-08-17T05:03:53.135Z,29.35
2022-08-17T05:06:21.759Z,29.35
2022-08-17T05:08:50.115Z,29.35
2022-08-17T05:11:19.012Z,29.33
2022-08-17T05:13:50.396Z,29.34
2022-08-17T05:16:21.753Z,29.33
2022-08-17T05:18:50.760Z,29.33
2022-08-17T05:21:18.880Z,29.28
2022-08-17T05:23:54.942Z,29.33
2022-08-17T05:26:26.839Z,29.38
2022-08-17T05:29:02.578Z,29.41
2022-08-17T05:31:33.125Z,29.43
2022-08-17T05:34:01.696Z,29.44
2022-08-17T05:36:42.632Z,29.44
2022-08-17T05:39:16.424Z,29.46
2022-08-17T05:41:47.859Z,29.45
2022-08-17T05:44:17.237Z,29.44
2022-08-17T05:46:50.251Z,29.46
2022-08-17T05:49:23.141Z,29.48
2022-08-17T05:52:20.075Z,29.49
2022-08-17T05:55:04.442Z,29.50
2022-08-17T05:57:53.348Z,29.45
2022-08-17T06:00:30.107Z,29.41
2022-08-17T06:03:36.928Z,29.45
2022-08-17T06:06:25.290Z,29.45
2022-08-17T06:09:21.190Z,29.44
2022-08-17T06:11:58.794Z,29.39
2022-08-17T06:14:41.135Z,29.41
2022-08-17T06:17:12.937Z,29.45
2022-08-17T06:19:45.225Z,29.46
2022-08-17T06:22:21.189Z,29.48
2022-08-17T06:24:56.880Z,29.43
2022-08-17T06:27:32.936Z,29.47
2022-08-17T06:30:09.454Z,29.48
2022-08-17T06:32:40.796Z,29.49
2022-08-17T06:35:12.077Z,29.43
2022-08-17T06:38:00.424Z,29.35
2022-08-17T06:40:49.411Z,29.28
2022-08-17T06:43:24.278Z,29.26
2022-08-17T06:46:00.336Z,29.23
2022-08-17T06:48:36.217Z,29.25
2022-08-17T06:51:12.360Z,29.27
2022-08-17T06:53:46.705Z,29.28
2022-08-17T06:56:25.060Z,29.26
2022-08-17T06:59:19.673Z,29.27
2022-08-17T07:01:52.281Z,29.27
2022-08-17T07:04:24.452Z,29.32
2022-08-17T07:06:58.369Z,29.30
2022-08-17T07:09:32.482Z,29.31
2022-08-17T07:12:10.082Z,29.23
2022-08-17T07:14:44.559Z,29.26
2022-08-17T07:17:15.626Z,29.27
2022-08-17T07:19:47.448Z,29.30
2022-08-17T07:22:23.845Z,29.27
2022-08-17T07:24:58.542Z,29.25
2022-08-17T07:27:31.163Z,29.24
2022-08-17T07:30:10.600Z,29.27
2022-08-17T07:32:44.108Z,29.26
2022-08-17T07:35:17.097Z,29.24
2022-08-17T07:37:53.317Z,29.30
2022-08-17T07:40:36.020Z,29.32
2022-08-17T07:43:21.895Z,29.27
2022-08-17T07:46:19.098Z,29.30
2022-08-17T07:48:50.365Z,29.32
2022-08-17T07:51:26.253Z,29.34
2022-08-17T07:54:13.180Z,29.34
2022-08-17T07:56:46.485Z,29.34
2022-08-17T07:59:18.206Z,29.35
2022-08-17T08:02:03.700Z,29.37
2022-08-17T08:04:59.355Z,29.35
2022-08-17T08:07:32.088Z,29.34
2022-08-17T08:10:11.221Z,29.35
2022-08-17T08:12:43.054Z,29.34
2022-08-17T08:15:18.958Z,29.36
2022-08-17T08:17:52.261Z,29.37
2022-08-17T08:20:52.168Z,29.36
2022-08-17T08:23:18.839Z,29.37
2022-08-17T08:25:57.650Z,29.38
2022-08-17T08:28:35.734Z,29.37
2022-08-17T08:31:24.523Z,29.37
2022-08-17T08:34:05.573Z,29.37
2022-08-17T08:37:02.464Z,29.37
2022-08-17T08:39:44.095Z,29.38
2022-08-17T08:42:23.777Z,29.39
2022-08-17T08:45:06.815Z,29.38
2022-08-17T08:47:53.355Z,29.40
2022-08-17T08:50:38.296Z,29.39
2022-08-17T08:53:24.196Z,29.40
2022-08-17T08:55:56.690Z,29.39
2022-08-17T08:58:41.685Z,29.39
2022-08-17T09:01:22.205Z,29.39
2022-08-17T09:04:24.734Z,29.42
2022-08-17T09:07:06.267Z,29.39
2022-08-17T09:09:46.806Z,29.40
2022-08-17T09:12:22.929Z,29.40
2022-08-17T09:14:55.839Z,29.40
2022-08-17T09:17:36.863Z,29.40
2022-08-17T09:20:27.131Z,29.40
2022-08-17T09:23:02.894Z,29.40
2022-08-17T09:25:36.335Z,29.39
2022-08-17T09:28:08.316Z,29.40
2022-08-17T09:30:43.355Z,29.42
2022-08-17T09:33:17.162Z,29.41
2022-08-17T09:35:50.765Z,29.42
2022-08-17T09:38:32.148Z,29.42
2022-08-17T09:41:10.183Z,29.42
2022-08-17T09:43:45.999Z,29.42
2022-08-17T09:46:21.045Z,29.43
2022-08-17T09:48:58.139Z,29.42
2022-08-17T09:51:34.114Z,29.43
2022-08-17T09:54:34.901Z,29.42
2022-08-17T09:57:28.042Z,29.43
2022-08-17T10:00:02.617Z,29.42
2022-08-17T10:03:05.269Z,29.45
2022-08-17T10:05:41.455Z,29.43
2022-08-17T10:08:21.580Z,29.43
2022-08-17T10:11:00.207Z,29.43
2022-08-17T10:13:37.318Z,29.43
2022-08-17T10:16:15.392Z,29.43
2022-08-17T10:18:52.939Z,29.43
2022-08-17T10:21:42.494Z,29.43
2022-08-17T10:24:37.415Z,29.44
2022-08-17T10:27:10.366Z,29.43
2022-08-17T10:29:48.433Z,29.44
2022-08-17T10:32:27.856Z,29.44
2022-08-17T10:35:26.082Z,29.46
2022-08-17T10:38:38.647Z,29.45
2022-08-17T10:41:21.978Z,29.45
2022-08-17T10:44:38.381Z,29.44
2022-08-17T10:47:01.975Z,29.44
2022-08-17T10:49:34.344Z,29.44
2022-08-17T10:52:05.383Z,29.45
2022-08-17T10:54:41.065Z,29.46
2022-08-17T10:57:36.506Z,29.47
2022-08-17T11:00:15.199Z,29.46
2022-08-17T11:02:51.230Z,29.45
2022-08-17T11:05:43.694Z,29.46
2022-08-17T11:08:49.317Z,29.47
2022-08-17T11:11:50.072Z,29.45
2022-08-17T11:14:35.002Z,29.45
2022-08-17T11:17:16.680Z,29.47
2022-08-17T11:20:14.258Z,29.48
2022-08-17T11:23:14.844Z,29.48
2022-08-17T11:25:48.525Z,29.46
2022-08-17T11:28:22.327Z,29.47
2022-08-17T11:30:54.257Z,29.48
2022-08-17T11:33:55.167Z,29.49
2022-08-17T11:36:52.998Z,29.49
2022-08-17T11:39:42.081Z,29.46
2022-08-17T11:42:26.666Z,29.48
2022-08-17T11:44:59.167Z,29.48
2022-08-17T11:48:26.749Z,29.49
2022-08-17T11:51:16.475Z,29.48
2022-08-17T11:56:54.369Z,29.47
2022-08-17T11:59:59.785Z,29.50
2022-08-17T12:02:43.334Z,29.47
2022-08-17T12:05:44.237Z,29.49
2022-08-17T12:08:18.597Z,29.48
2022-08-17T12:11:03.323Z,29.51
2022-08-17T12:13:39.483Z,29.48
2022-08-17T12:16:14.956Z,29.50
2022-08-17T12:18:50.986Z,29.50
2022-08-17T12:21:29.532Z,29.50
2022-08-17T12:24:06.698Z,29.50
2022-08-17T12:26:37.255Z,29.51
2022-08-17T12:29:09.428Z,29.50
2022-08-17T12:31:50.470Z,29.51
2022-08-17T12:34:20.835Z,29.51
2022-08-17T12:36:52.358Z,29.51
2022-08-17T12:39:25.092Z,29.50
2022-08-17T12:42:02.136Z,29.50
2022-08-17T12:44:33.601Z,29.51
2022-08-17T12:47:09.773Z,29.51
2022-08-17T12:49:41.048Z,29.50
2022-08-17T12:52:23.775Z,29.52
2022-08-17T12:54:59.515Z,29.51
2022-08-17T12:57:32.877Z,29.51
2022-08-17T13:00:03.906Z,29.52
2022-08-17T13:02:42.723Z,29.52
2022-08-17T13:05:29.082Z,29.53
2022-08-17T13:07:59.744Z,29.50
2022-08-17T13:10:33.175Z,29.52
2022-08-17T13:13:05.457Z,29.52
2022-08-17T13:15:38.578Z,29.52
2022-08-17T13:18:39.075Z,29.54
2022-08-17T13:21:12.366Z,29.52
2022-08-17T13:23:48.837Z,29.52
2022-08-17T13:26:29.566Z,29.54
2022-08-17T13:28:58.568Z,29.53
2022-08-17T13:31:51.926Z,29.54
2022-08-17T13:34:38.108Z,29.55
2022-08-17T13:37:32.777Z,29.53
2022-08-17T13:40:05.845Z,29.53
2022-08-17T13:42:48.137Z,29.52
2022-08-17T13:45:44.799Z,29.54
2022-08-17T13:48:21.908Z,29.54
2022-08-17T13:51:21.148Z,29.55
2022-08-17T13:53:57.930Z,29.54
2022-08-17T13:56:33.404Z,29.54
2022-08-17T13:59:09.860Z,29.54
2022-08-17T14:01:40.749Z,29.52
2022-08-17T14:04:12.301Z,29.54
2022-08-17T14:06:53.111Z,29.55
2022-08-17T14:09:25.747Z,29.54
2022-08-17T14:11:56.157Z,29.55
2022-08-17T14:14:24.902Z,29.55
2022-08-17T14:16:54.091Z,29.56
2022-08-17T14:19:23.104Z,29.56
2022-08-17T14:21:59.019Z,29.54
2022-08-17T14:24:29.858Z,29.52
2022-08-17T14:26:59.014Z,29.54
2022-08-17T14:29:30.271Z,29.55
2022-08-17T14:32:08.111Z,29.56
2022-08-17T14:34:36.463Z,29.55
2022-08-17T14:37:06.162Z,29.62
2022-08-17T14:39:34.554Z,29.71
2022-08-17T14:42:03.059Z,29.72
2022-08-17T14:44:31.406Z,29.76
2022-08-17T14:46:59.828Z,29.72
2022-08-17T14:49:28.238Z,29.70
2022-08-17T14:51:56.591Z,29.67
2022-08-17T14:54:32.704Z,29.68
2022-08-17T14:57:17.717Z,29.65
2022-08-17T14:59:54.562Z,29.62
2022-08-17T15:02:30.046Z,29.65
2022-08-17T15:05:48.734Z,29.65
2022-08-17T15:08:18.032Z,29.68
2022-08-17T15:10:46.667Z,29.68
2022-08-17T15:13:20.046Z,29.69
2022-08-17T15:15:48.766Z,29.70
2022-08-17T15:18:17.698Z,29.69
2022-08-17T15:20:49.220Z,29.70
2022-08-17T15:23:21.596Z,29.70
2022-08-17T15:25:52.741Z,29.66
2022-08-17T15:28:22.957Z,29.70
2022-08-17T15:30:52.454Z,29.70
2022-08-17T15:33:24.011Z,29.69
2022-08-17T15:35:54.630Z,29.67
2022-08-17T15:38:23.622Z,29.66
2022-08-17T15:40:53.190Z,29.65
2022-08-17T15:43:27.714Z,29.63
2022-08-17T15:46:01.347Z,29.62
2022-08-17T15:48:41.615Z,29.61
2022-08-17T15:51:14.420Z,29.59
2022-08-17T15:53:44.238Z,29.57
2022-08-17T15:56:13.834Z,29.57
2022-08-17T15:58:43.793Z,29.55
2022-08-17T16:01:14.658Z,29.61
2022-08-17T16:04:03.905Z,29.61
2022-08-17T16:06:35.238Z,29.61
2022-08-17T16:09:03.665Z,29.62
2022-08-17T16:11:32.010Z,29.60
2022-08-17T16:14:00.430Z,29.60
2022-08-17T16:16:29.586Z,29.59
2022-08-17T16:18:58.751Z,29.58
2022-08-17T16:21:31.163Z,29.56
2022-08-17T16:24:13.203Z,29.56
2022-08-17T16:26:42.571Z,29.55
2022-08-17T16:29:10.971Z,29.53
2022-08-17T16:31:39.461Z,29.53
2022-08-17T16:34:18.025Z,29.53
2022-08-17T16:36:55.128Z,29.51
2022-08-17T16:39:27.777Z,29.51
2022-08-17T16:41:56.636Z,29.49
2022-08-17T16:44:26.294Z,29.45
2022-08-17T16:46:54.674Z,29.48
2022-08-17T16:49:35.657Z,29.54
2022-08-17T16:52:10.365Z,29.52
2022-08-17T16:54:43.937Z,29.52
2022-08-17T16:57:13.282Z,29.50
2022-08-17T16:59:44.871Z,29.49
2022-08-17T17:02:17.377Z,29.52
2022-08-17T17:04:53.382Z,29.51
2022-08-17T17:07:37.597Z,29.51
2022-08-17T17:10:11.969Z,29.49
2022-08-17T17:13:02.418Z,29.49
2022-08-17T17:15:47.388Z,29.47
2022-08-17T17:18:17.919Z,29.46
2022-08-17T17:20:53.637Z,29.48
2022-08-17T17:23:35.281Z,29.47
2022-08-17T17:26:17.622Z,29.48
2022-08-17T17:29:01.170Z,29.48
2022-08-17T17:31:39.305Z,29.48
2022-08-17T17:34:11.439Z,29.45
2022-08-17T17:36:43.251Z,29.47
2022-08-17T17:39:16.833Z,29.46
2022-08-17T17:41:50.399Z,29.46
2022-08-17T17:44:25.645Z,29.45
2022-08-17T17:46:57.712Z,29.46
2022-08-17T17:49:29.866Z,29.47
2022-08-17T17:52:13.179Z,29.47
2022-08-17T17:54:58.687Z,29.47
2022-08-17T17:57:39.532Z,29.46
2022-08-17T18:00:14.041Z,29.43
2022-08-17T18:02:54.273Z,29.45
2022-08-17T18:05:40.778Z,29.42
2022-08-17T18:08:21.407Z,29.41
2022-08-17T18:11:12.988Z,29.42
2022-08-17T18:14:05.012Z,29.47
2022-08-17T18:16:35.241Z,29.46
2022-08-17T18:19:03.795Z,29.41
2022-08-17T18:21:39.325Z,29.39
2022-08-17T18:24:10.700Z,29.39
2022-08-17T18:26:55.100Z,29.42
2022-08-17T18:29:42.189Z,29.37
2022-08-17T18:32:38.032Z,29.43
2022-08-17T18:35:31.145Z,29.40
2022-08-17T18:38:20.585Z,29.41
2022-08-17T18:40:59.782Z,29.38
2022-08-17T18:43:43.834Z,29.37
2022-08-17T18:46:29.621Z,29.37
2022-08-17T18:49:00.667Z,29.36
2022-08-17T18:51:41.520Z,29.33
2022-08-17T18:54:18.254Z,29.32
2022-08-17T18:56:55.284Z,29.34
2022-08-17T18:59:36.205Z,29.35
2022-08-17T19:02:39.126Z,29.35
2022-08-17T19:05:26.629Z,29.34
2022-08-17T19:07:55.817Z,29.37
2022-08-17T19:10:28.793Z,29.37
2022-08-17T19:13:12.603Z,29.35
2022-08-17T19:15:46.941Z,29.38
2022-08-17T19:18:43.025Z,29.36
2022-08-17T19:21:16.584Z,29.40
2022-08-17T19:23:54.249Z,29.33
2022-08-17T19:26:54.747Z,29.33
2022-08-17T19:29:22.178Z,29.29
2022-08-17T19:31:51.670Z,29.35
2022-08-17T19:34:33.175Z,29.35
2022-08-17T19:37:09.054Z,29.35
2022-08-17T19:39:47.818Z,29.28
2022-08-17T19:42:28.659Z,29.28
2022-08-17T19:45:05.541Z,29.25
2022-08-17T19:48:04.563Z,29.25
2022-08-17T19:50:41.656Z,29.25
2022-08-17T19:53:21.607Z,29.24
2022-08-17T19:56:07.348Z,29.23
2022-08-17T19:58:48.396Z,29.24
2022-08-17T20:01:24.085Z,29.24
2022-08-17T20:03:58.285Z,29.25
2022-08-17T20:06:32.538Z,29.24
2022-08-17T20:09:10.550Z,29.25
2022-08-17T20:11:48.167Z,29.21
2022-08-17T20:14:21.796Z,29.19
2022-08-17T20:16:50.449Z,29.18
2022-08-17T20:19:25.298Z,29.19
2022-08-17T20:22:00.669Z,29.21
2022-08-17T20:24:36.610Z,29.16
2022-08-17T20:27:16.396Z,29.17
2022-08-17T20:30:07.778Z,29.20
2022-08-17T20:32:52.036Z,29.17
2022-08-17T20:35:25.275Z,29.17
2022-08-17T20:37:58.768Z,29.18
2022-08-17T20:40:34.188Z,29.15
2022-08-17T20:43:52.192Z,29.16
2022-08-17T20:46:29.305Z,29.11
2022-08-17T20:49:01.873Z,29.16
2022-08-17T20:51:38.645Z,29.11
2022-08-17T20:54:29.376Z,29.07
2022-08-17T20:57:01.096Z,29.08
2022-08-17T21:00:14.149Z,29.12
2022-08-17T21:02:44.914Z,29.04
2022-08-17T21:05:37.608Z,29.09
2022-08-17T21:08:15.612Z,29.04
2022-08-17T21:10:47.371Z,29.06
2022-08-17T21:13:41.580Z,29.06
2022-08-17T21:16:31.452Z,29.05
2022-08-17T21:19:12.581Z,29.07
2022-08-17T21:21:50.380Z,29.03
2022-08-17T21:24:34.354Z,29.06
2022-08-17T21:27:19.266Z,29.02
2022-08-17T21:30:13.905Z,29.04
2022-08-17T21:32:44.545Z,29.02
2022-08-17T21:35:25.786Z,29.05
2022-08-17T21:38:00.106Z,29.05
2022-08-17T21:40:31.046Z,29.04
2022-08-17T21:43:08.441Z,29.03
2022-08-17T21:45:39.342Z,29.01
2022-08-17T21:48:14.016Z,29.03
2022-08-17T21:50:45.366Z,29.02
2022-08-17T21:53:24.824Z,29.04
2022-08-17T21:55:55.694Z,29.02
2022-08-17T21:58:40.421Z,29.01
2022-08-17T22:01:21.009Z,28.99
2022-08-17T22:03:57.698Z,28.98
2022-08-17T22:06:29.044Z,28.98
2022-08-17T22:09:15.060Z,28.94
2022-08-17T22:11:59.156Z,28.95
2022-08-17T22:14:52.607Z,28.95
2022-08-17T22:17:24.247Z,28.86
2022-08-17T22:19:56.445Z,28.85
2022-08-17T22:22:35.562Z,28.84
2022-08-17T22:25:05.881Z,28.83
2022-08-17T22:27:50.847Z,28.83
2022-08-17T22:30:29.127Z,28.86
2022-08-17T22:32:58.280Z,28.81
2022-08-17T22:35:28.673Z,28.78
2022-08-17T22:37:57.272Z,28.80
2022-08-17T22:40:30.577Z,28.83
2022-08-17T22:43:00.140Z,28.84
2022-08-17T22:45:31.301Z,28.80
2022-08-17T22:48:02.195Z,28.80
2022-08-17T22:50:33.397Z,28.80
2022-08-17T22:53:20.723Z,28.75
2022-08-17T22:56:11.527Z,28.72
2022-08-17T22:59:02.950Z,28.72
2022-08-17T23:01:35.613Z,28.73
2022-08-17T23:04:07.114Z,28.70
2022-08-17T23:06:37.457Z,28.74
2022-08-17T23:09:07.429Z,28.72
2022-08-17T23:11:48.642Z,28.71
2022-08-17T23:14:20.611Z,28.74
2022-08-17T23:16:51.380Z,28.74
2022-08-17T23:19:21.795Z,28.73
2022-08-17T23:21:51.144Z,28.72
2022-08-17T23:24:24.138Z,28.75
2022-08-17T23:26:52.933Z,28.73
2022-08-17T23:29:22.686Z,28.71
2022-08-17T23:31:53.630Z,28.72
2022-08-17T23:34:23.259Z,28.67
2022-08-17T23:36:53.240Z,28.69
2022-08-17T23:39:24.745Z,28.63
2022-08-17T23:41:57.393Z,28.63
2022-08-17T23:44:26.006Z,28.63
2022-08-17T23:46:56.357Z,28.68
2022-08-17T23:49:25.286Z,28.64
2022-08-17T23:51:55.347Z,28.60
2022-08-17T23:54:28.363Z,28.62
2022-08-17T23:56:56.720Z,28.59
2022-08-17T23:59:27.072Z,28.58
